createdAt,value
2018-12-03T00:02:06.875Z,0.50
2018-12-03T00:04:34.671Z,0.50
2018-12-03T00:07:02.261Z,0.40
2018-12-03T00:09:29.777Z,0.40
2018-12-03T00:11:57.292Z,0.37
2018-12-03T00:14:24.759Z,0.50
2018-12-03T00:16:52.331Z,0.43
2018-12-03T00:19:20.001Z,0.70
2018-12-03T00:21:47.422Z,0.50
2018-12-03T00:24:14.851Z,0.60
2018-12-03T00:26:42.371Z,0.50
2018-12-03T00:29:10.041Z,0.50
2018-12-03T00:31:37.441Z,0.43
2018-12-03T00:34:05.121Z,0.50
2018-12-03T00:36:32.635Z,0.60
2018-12-03T00:39:00.262Z,0.57
2018-12-03T00:41:27.867Z,0.40
2018-12-03T00:43:55.409Z,0.40
2018-12-03T00:46:22.811Z,0.50
2018-12-03T00:48:50.267Z,0.30
2018-12-03T00:51:17.632Z,0.50
2018-12-03T00:53:44.993Z,0.30
2018-12-03T00:56:12.444Z,0.40
2018-12-03T00:58:40.864Z,0.50
2018-12-03T01:01:08.319Z,0.50
2018-12-03T01:03:37.959Z,0.40
2018-12-03T01:06:06.296Z,0.40
2018-12-03T01:08:33.754Z,0.43
2018-12-03T01:11:01.101Z,0.40
2018-12-03T01:13:28.610Z,0.30
2018-12-03T01:15:56.109Z,0.40
2018-12-03T01:18:23.473Z,0.30
2018-12-03T01:20:50.985Z,0.40
2018-12-03T01:23:18.711Z,0.50
2018-12-03T01:25:46.207Z,0.50
2018-12-03T01:28:13.669Z,0.40
2018-12-03T01:30:41.206Z,0.47
2018-12-03T01:33:08.636Z,0.33
2018-12-03T01:35:36.138Z,0.30
2018-12-03T01:38:03.602Z,0.30
2018-12-03T01:40:31.062Z,0.30
2018-12-03T01:42:58.455Z,0.30
2018-12-03T01:45:26.024Z,0.40
2018-12-03T01:47:53.580Z,0.30
2018-12-03T01:50:21.067Z,0.33
2018-12-03T01:52:48.492Z,0.40
2018-12-03T01:55:15.950Z,0.30
2018-12-03T01:57:43.447Z,0.30
2018-12-03T02:00:18.309Z,0.47
2018-12-03T02:02:45.696Z,0.30
2018-12-03T02:05:13.362Z,0.40
2018-12-03T02:07:40.923Z,0.37
2018-12-03T02:10:09.951Z,0.50
2018-12-03T02:12:37.436Z,0.40
2018-12-03T02:15:05.742Z,0.50
2018-12-03T02:17:33.097Z,0.40
2018-12-03T02:20:00.894Z,0.33
2018-12-03T02:22:28.314Z,0.40
2018-12-03T02:24:55.893Z,2.27
2018-12-03T02:27:23.396Z,0.40
2018-12-03T02:29:50.957Z,0.40
2018-12-03T02:32:18.384Z,0.40
2018-12-03T02:34:45.873Z,0.30
2018-12-03T02:37:13.339Z,0.50
2018-12-03T02:39:40.857Z,0.53
2018-12-03T02:42:08.292Z,0.53
2018-12-03T02:44:35.800Z,0.40
2018-12-03T02:47:03.243Z,0.40
2018-12-03T02:49:30.755Z,0.30
2018-12-03T02:51:58.388Z,0.40
2018-12-03T02:54:25.931Z,0.30
2018-12-03T02:56:57.309Z,0.40
2018-12-03T02:59:24.771Z,0.60
2018-12-03T03:01:52.644Z,0.40
2018-12-03T03:04:20.082Z,0.40
2018-12-03T03:06:47.553Z,0.30
2018-12-03T03:09:15.063Z,0.30
2018-12-03T03:11:42.495Z,0.60
2018-12-03T03:14:10.001Z,0.50
2018-12-03T03:16:37.432Z,0.30
2018-12-03T03:19:05.251Z,0.40
2018-12-03T03:21:32.868Z,0.33
2018-12-03T03:24:00.432Z,0.30
2018-12-03T03:26:27.945Z,0.40
2018-12-03T03:28:55.471Z,0.50
2018-12-03T03:31:22.947Z,0.40
2018-12-03T03:33:50.507Z,0.37
2018-12-03T03:36:17.946Z,0.30
2018-12-03T03:38:45.461Z,0.50
2018-12-03T03:41:13.136Z,0.57
2018-12-03T03:43:40.757Z,0.40
2018-12-03T03:46:08.185Z,0.40
2018-12-03T03:48:35.655Z,0.47
2018-12-03T03:51:03.178Z,0.40
2018-12-03T03:53:30.523Z,0.50
2018-12-03T03:55:57.970Z,0.57
2018-12-03T03:58:25.495Z,0.40
2018-12-03T04:00:52.951Z,0.30
2018-12-03T04:03:20.476Z,0.30
2018-12-03T04:05:48.327Z,0.40
2018-12-03T04:08:16.684Z,0.30
2018-12-03T04:10:44.103Z,0.40
2018-12-03T04:13:11.567Z,0.60
2018-12-03T04:15:39.275Z,0.30
2018-12-03T04:18:06.747Z,0.30
2018-12-03T04:20:34.178Z,0.30
2018-12-03T04:23:01.637Z,0.40
2018-12-03T04:25:29.172Z,0.30
2018-12-03T04:27:56.633Z,0.47
2018-12-03T04:30:24.155Z,0.30
2018-12-03T04:32:52.180Z,0.30
2018-12-03T04:35:20.493Z,0.30
2018-12-03T04:37:47.855Z,0.33
2018-12-03T04:40:15.812Z,0.50
2018-12-03T04:42:43.376Z,0.43
2018-12-03T04:45:12.319Z,0.40
2018-12-03T04:47:39.830Z,0.30
2018-12-03T04:50:11.751Z,0.20
2018-12-03T04:52:39.164Z,0.30
2018-12-03T04:55:06.701Z,0.30
2018-12-03T04:57:34.319Z,0.33
2018-12-03T05:00:01.750Z,0.40
2018-12-03T05:02:29.441Z,0.50
2018-12-03T05:04:56.867Z,0.30
2018-12-03T05:07:24.298Z,0.30
2018-12-03T05:09:51.795Z,0.37
2018-12-03T05:12:19.256Z,0.30
2018-12-03T05:14:46.712Z,0.40
2018-12-03T05:17:14.214Z,0.30
2018-12-03T05:19:41.738Z,0.30
2018-12-03T05:22:09.180Z,0.37
2018-12-03T05:24:36.635Z,0.50
2018-12-03T05:27:04.156Z,0.33
2018-12-03T05:29:31.666Z,0.30
2018-12-03T05:31:59.475Z,0.70
2018-12-03T05:34:26.949Z,0.30
2018-12-03T05:36:54.400Z,0.57
2018-12-03T05:39:21.847Z,0.50
2018-12-03T05:41:49.335Z,0.50
2018-12-03T05:44:17.651Z,0.50
2018-12-03T05:46:45.329Z,0.60
2018-12-03T05:49:12.883Z,1.07
2018-12-03T05:51:40.344Z,0.60
2018-12-03T05:54:08.673Z,0.50
2018-12-03T05:56:36.186Z,0.40
2018-12-03T05:59:03.764Z,0.50
2018-12-03T06:01:31.363Z,0.43
2018-12-03T06:03:58.805Z,0.50
2018-12-03T06:06:26.232Z,0.63
2018-12-03T06:08:53.757Z,0.47
2018-12-03T06:11:21.134Z,0.40
2018-12-03T06:13:48.701Z,0.70
2018-12-03T06:16:16.644Z,0.50
2018-12-03T06:18:44.326Z,0.30
2018-12-03T06:21:11.801Z,0.63
2018-12-03T06:23:39.523Z,0.50
2018-12-03T06:26:07.012Z,0.50
2018-12-03T06:28:34.560Z,0.40
2018-12-03T06:31:02.229Z,0.60
2018-12-03T06:33:29.758Z,1.47
2018-12-03T06:35:57.252Z,0.57
2018-12-03T06:38:24.667Z,0.60
2018-12-03T06:40:52.210Z,0.60
2018-12-03T06:43:19.692Z,0.70
2018-12-03T06:45:47.335Z,0.57
2018-12-03T06:48:16.259Z,0.57
2018-12-03T06:50:43.865Z,0.60
2018-12-03T06:53:11.774Z,0.60
2018-12-03T06:55:40.081Z,0.50
2018-12-03T06:58:07.707Z,0.40
2018-12-03T07:00:35.413Z,0.50
2018-12-03T07:03:02.807Z,0.50
2018-12-03T07:05:30.295Z,0.77
2018-12-03T07:07:58.351Z,0.43
2018-12-03T07:10:26.070Z,0.87
2018-12-03T07:12:54.285Z,0.73
2018-12-03T07:15:22.218Z,0.63
2018-12-03T07:17:51.138Z,0.60
2018-12-03T07:20:18.510Z,0.43
2018-12-03T07:22:45.860Z,0.57
2018-12-03T07:25:13.286Z,0.50
2018-12-03T07:27:40.623Z,1.70
2018-12-03T07:30:14.423Z,1.17
2018-12-03T07:32:42.181Z,0.60
2018-12-03T07:35:09.932Z,0.70
2018-12-03T07:37:37.380Z,0.77
2018-12-03T07:40:05.655Z,0.93
2018-12-03T07:42:33.023Z,0.63
2018-12-03T07:45:00.400Z,0.50
2018-12-03T07:47:28.504Z,0.60
2018-12-03T07:49:55.840Z,0.60
2018-12-03T07:52:23.383Z,0.50
2018-12-03T07:54:50.811Z,0.40
2018-12-03T07:57:18.228Z,0.70
2018-12-03T07:59:45.660Z,0.60
2018-12-03T08:02:13.015Z,0.60
2018-12-03T08:04:40.333Z,0.63
2018-12-03T08:07:07.700Z,0.50
2018-12-03T08:09:35.063Z,1.03
2018-12-03T08:14:36.638Z,0.60
2018-12-03T08:17:04.028Z,0.60
2018-12-03T08:19:31.921Z,0.50
2018-12-03T08:21:59.324Z,0.60
2018-12-03T08:24:26.699Z,0.70
2018-12-03T08:26:54.078Z,0.50
2018-12-03T08:29:21.445Z,0.57
2018-12-03T08:31:48.889Z,0.60
2018-12-03T08:34:16.292Z,0.67
2018-12-03T08:36:43.676Z,0.70
2018-12-03T08:39:11.125Z,0.80
2018-12-03T08:41:38.437Z,0.70
2018-12-03T08:44:06.280Z,0.90
2018-12-03T08:46:33.711Z,0.77
2018-12-03T08:49:01.806Z,0.73
2018-12-03T08:51:29.278Z,0.53
2018-12-03T08:53:56.664Z,0.50
2018-12-03T08:56:24.028Z,0.40
2018-12-03T08:58:51.406Z,0.60
2018-12-03T09:01:20.058Z,0.40
2018-12-03T09:03:49.403Z,0.83
2018-12-03T09:06:16.841Z,0.60
2018-12-03T09:08:48.160Z,0.80
2018-12-03T09:11:15.605Z,0.80
2018-12-03T09:13:43.099Z,0.70
2018-12-03T09:16:10.570Z,0.77
2018-12-03T09:18:38.918Z,0.67
2018-12-03T09:21:08.539Z,0.50
2018-12-03T09:23:35.981Z,0.90
2018-12-03T09:26:03.318Z,0.87
2018-12-03T09:28:31.088Z,0.80
2018-12-03T09:30:58.570Z,1.03
2018-12-03T09:33:25.969Z,0.87
2018-12-03T09:35:53.364Z,1.00
2018-12-03T09:38:20.826Z,0.83
2018-12-03T09:40:48.254Z,0.70
2018-12-03T09:43:15.717Z,1.10
2018-12-03T09:45:43.162Z,0.80
2018-12-03T09:48:10.766Z,1.10
2018-12-03T09:50:38.268Z,0.73
2018-12-03T09:53:05.819Z,0.73
2018-12-03T09:55:33.354Z,0.80
2018-12-03T09:58:10.182Z,0.80
2018-12-03T10:00:36.335Z,0.80
2018-12-03T10:03:05.067Z,0.73
2018-12-03T10:05:33.990Z,0.70
2018-12-03T10:08:01.410Z,0.70
2018-12-03T10:10:28.757Z,0.90
2018-12-03T10:15:29.369Z,0.70
2018-12-03T10:17:57.189Z,0.83
2018-12-03T10:20:24.524Z,0.70
2018-12-03T10:22:51.921Z,0.97
2018-12-03T10:25:19.293Z,0.70
2018-12-03T10:27:46.795Z,0.60
2018-12-03T10:30:17.855Z,1.47
2018-12-03T10:32:46.351Z,0.93
2018-12-03T10:35:13.735Z,1.03
2018-12-03T10:37:41.213Z,0.90
2018-12-03T10:40:11.550Z,1.10
2018-12-03T10:42:38.931Z,0.80
2018-12-03T10:45:08.020Z,0.93
2018-12-03T10:47:35.374Z,1.53
2018-12-03T10:50:04.573Z,1.07
2018-12-03T10:52:31.888Z,0.77
2018-12-03T10:54:59.284Z,0.90
2018-12-03T10:57:26.724Z,0.80
2018-12-03T10:59:54.712Z,1.03
2018-12-03T11:02:29.892Z,0.90
2018-12-03T11:05:02.701Z,0.87
2018-12-03T11:07:30.150Z,0.90
2018-12-03T11:09:57.522Z,0.80
2018-12-03T11:12:25.032Z,0.90
2018-12-03T11:14:52.642Z,0.67
2018-12-03T11:17:20.508Z,0.93
2018-12-03T11:19:48.204Z,0.70
2018-12-03T11:22:20.059Z,1.13
2018-12-03T11:24:47.773Z,0.60
2018-12-03T11:27:15.154Z,0.87
2018-12-03T11:29:42.563Z,0.80
2018-12-03T11:32:10.015Z,0.77
2018-12-03T11:34:37.320Z,0.67
2018-12-03T11:37:04.754Z,0.80
2018-12-03T11:39:39.826Z,1.20
2018-12-03T11:42:07.506Z,0.90
2018-12-03T11:44:35.509Z,1.20
2018-12-03T11:47:03.077Z,1.20
2018-12-03T11:49:30.503Z,1.10
2018-12-03T11:51:57.990Z,0.90
2018-12-03T11:54:25.369Z,0.97
2018-12-03T11:56:52.878Z,0.93
2018-12-03T11:59:20.324Z,0.70
2018-12-03T12:01:47.743Z,1.00
2018-12-03T12:04:15.171Z,0.90
2018-12-03T12:06:42.632Z,1.00
2018-12-03T12:09:10.895Z,0.90
2018-12-03T12:11:38.756Z,0.97
2018-12-03T12:14:37.429Z,1.43
2018-12-03T12:17:05.067Z,0.93
2018-12-03T12:19:32.550Z,1.17
2018-12-03T12:22:00.013Z,1.00
2018-12-03T12:24:27.504Z,1.03
2018-12-03T12:26:55.808Z,1.00
2018-12-03T12:29:23.221Z,1.00
2018-12-03T12:31:50.839Z,1.10
2018-12-03T12:34:18.278Z,0.93
2018-12-03T12:36:45.858Z,1.23
2018-12-03T12:39:13.295Z,1.00
2018-12-03T12:41:41.433Z,1.60
2018-12-03T12:44:09.464Z,1.00
2018-12-03T12:46:37.573Z,0.93
2018-12-03T12:49:06.109Z,1.03
2018-12-03T12:51:33.519Z,0.80
2018-12-03T12:54:01.119Z,1.20
2018-12-03T12:56:28.696Z,1.00
2018-12-03T12:58:56.062Z,1.17
2018-12-03T13:01:23.406Z,0.67
2018-12-03T13:03:50.778Z,0.97
2018-12-03T13:06:18.117Z,0.97
2018-12-03T13:08:45.467Z,0.80
2018-12-03T13:11:12.880Z,1.20
2018-12-03T13:13:40.369Z,1.87
2018-12-03T13:16:07.842Z,2.60
2018-12-03T13:18:35.226Z,1.57
2018-12-03T13:21:03.303Z,1.40
2018-12-03T13:23:30.771Z,1.60
2018-12-03T13:25:58.689Z,1.30
2018-12-03T13:28:26.486Z,2.10
2018-12-03T13:30:53.965Z,1.10
2018-12-03T13:33:21.511Z,1.03
2018-12-03T13:35:50.018Z,1.10
2018-12-03T13:38:20.446Z,1.20
2018-12-03T13:40:48.022Z,1.00
2018-12-03T13:43:16.157Z,0.97
2018-12-03T13:45:43.853Z,1.20
2018-12-03T13:48:11.809Z,0.97
2018-12-03T13:50:39.568Z,0.90
2018-12-03T13:53:07.290Z,0.97
2018-12-03T13:55:34.994Z,1.00
2018-12-03T13:58:02.742Z,1.20
2018-12-03T14:00:30.364Z,0.90
2018-12-03T14:03:01.493Z,1.30
2018-12-03T14:05:30.348Z,0.50
2018-12-03T14:08:03.036Z,0.80
2018-12-03T14:10:37.220Z,0.93
2018-12-03T14:13:12.530Z,1.13
2018-12-03T14:15:45.464Z,1.53
2018-12-03T14:18:18.184Z,1.10
2018-12-03T14:20:47.975Z,1.00
2018-12-03T14:23:17.199Z,1.13
2018-12-03T14:25:44.934Z,1.27
2018-12-03T14:28:12.606Z,0.63
2018-12-03T14:30:40.384Z,0.93
2018-12-03T14:33:08.752Z,0.80
2018-12-03T14:35:36.485Z,1.00
2018-12-03T14:38:04.290Z,1.00
2018-12-03T14:40:31.937Z,0.90
2018-12-03T14:45:36.437Z,1.13
2018-12-03T14:48:04.212Z,0.97
2018-12-03T14:50:32.019Z,1.37
2018-12-03T14:53:00.164Z,1.10
2018-12-03T14:55:27.825Z,1.40
2018-12-03T14:57:55.383Z,1.40
2018-12-03T15:00:23.095Z,0.83
2018-12-03T15:02:51.255Z,0.90
2018-12-03T15:05:19.143Z,1.00
2018-12-03T15:07:46.744Z,1.00
2018-12-03T15:10:14.528Z,1.03
2018-12-03T15:12:42.258Z,0.90
2018-12-03T15:15:11.766Z,0.93
2018-12-03T15:17:40.544Z,0.70
2018-12-03T15:20:08.664Z,1.10
2018-12-03T15:22:36.444Z,1.00
2018-12-03T15:25:04.679Z,1.43
2018-12-03T15:27:33.159Z,0.90
2018-12-03T15:44:50.893Z,1.23
2018-12-03T15:47:22.675Z,1.43
2018-12-03T15:49:56.082Z,1.10
2018-12-03T15:52:35.932Z,1.13
2018-12-03T15:55:16.397Z,1.03
2018-12-03T15:57:50.033Z,1.00
2018-12-03T16:00:26.093Z,0.93
2018-12-03T16:03:01.828Z,1.20
2018-12-03T16:05:37.819Z,1.17
2018-12-03T16:08:17.127Z,1.23
2018-12-03T16:13:49.648Z,1.10
2018-12-03T16:19:09.515Z,1.30
2018-12-03T16:21:38.200Z,1.53
2018-12-03T16:24:11.779Z,1.03
2018-12-03T16:26:41.392Z,1.40
2018-12-03T16:29:20.868Z,1.13
2018-12-03T16:31:58.585Z,1.20
2018-12-03T16:34:39.718Z,0.90
2018-12-03T16:48:55.011Z,1.80
2018-12-03T16:51:32.531Z,1.37
2018-12-03T16:54:07.342Z,1.30
2018-12-03T16:56:45.467Z,1.40
2018-12-03T17:15:11.487Z,1.17
2018-12-03T17:17:43.113Z,1.50
2018-12-03T17:20:18.125Z,1.30
2018-12-03T17:22:57.211Z,1.80
2018-12-03T17:25:33.036Z,1.13
2018-12-03T17:31:04.780Z,1.30
2018-12-03T17:33:36.521Z,1.20
2018-12-03T17:36:07.555Z,1.20
2018-12-03T17:38:38.468Z,2.03
2018-12-03T17:44:05.821Z,1.40
2018-12-03T17:46:43.717Z,1.47
2018-12-03T17:49:24.262Z,1.73
2018-12-03T17:54:43.780Z,1.67
2018-12-03T17:57:14.514Z,1.83
2018-12-03T17:59:57.827Z,1.30
2018-12-03T18:02:36.650Z,2.03
2018-12-03T18:05:19.831Z,1.50
2018-12-03T18:07:50.618Z,1.90
2018-12-03T18:10:31.440Z,1.23
2018-12-03T18:13:10.216Z,1.27
2018-12-03T18:15:37.721Z,1.37
2018-12-03T18:18:09.143Z,1.80
2018-12-03T18:20:44.725Z,2.17
2018-12-03T18:23:23.749Z,1.97
2018-12-03T18:25:51.370Z,2.03
2018-12-03T18:31:13.295Z,1.53
2018-12-03T18:36:39.230Z,1.70
2018-12-03T18:39:12.544Z,1.30
2018-12-03T18:41:48.193Z,1.47
2018-12-03T18:47:17.823Z,1.87
2018-12-03T18:55:26.982Z,1.00
2018-12-03T18:57:59.893Z,1.20
2018-12-03T19:00:37.877Z,1.00
2018-12-03T19:03:13.279Z,1.10
2018-12-03T19:05:50.194Z,2.00
2018-12-03T19:08:24.965Z,1.40
2018-12-03T19:10:56.386Z,1.10
2018-12-03T19:13:34.205Z,1.03
2018-12-03T19:16:05.895Z,1.10
2018-12-03T19:18:45.575Z,0.93
2018-12-03T19:21:22.542Z,1.00
2018-12-03T19:24:01.739Z,0.93
2018-12-03T19:26:39.411Z,0.80
2018-12-03T19:32:05.793Z,1.07
2018-12-03T19:34:45.273Z,0.87
2018-12-03T19:37:16.183Z,0.83
2018-12-03T19:39:55.686Z,0.73
2018-12-03T19:42:29.229Z,0.70
2018-12-03T19:45:01.289Z,1.03
2018-12-03T19:47:35.746Z,0.73
2018-12-03T19:50:10.498Z,1.00
2018-12-03T19:52:44.886Z,1.00
2018-12-03T19:58:17.240Z,0.93
2018-12-03T20:00:50.970Z,0.80
2018-12-03T20:03:21.879Z,1.23
2018-12-03T20:05:57.626Z,0.90
2018-12-03T20:08:30.641Z,0.97
2018-12-03T20:11:08.098Z,1.23
2018-12-03T20:13:49.116Z,1.27
2018-12-03T20:16:28.652Z,1.20
2018-12-03T20:18:59.875Z,1.40
2018-12-03T20:21:39.647Z,2.03
2018-12-03T20:24:12.126Z,1.30
2018-12-03T20:26:45.249Z,1.03
2018-12-03T20:29:18.259Z,1.03
2018-12-03T20:31:53.031Z,1.10
2018-12-03T20:34:59.805Z,0.90
2018-12-03T20:37:34.086Z,1.07
2018-12-03T20:40:07.288Z,1.33
2018-12-03T20:42:40.204Z,1.13
2018-12-03T20:45:23.884Z,1.10
2018-12-03T20:50:52.814Z,1.20
2018-12-03T20:53:25.672Z,1.40
2018-12-03T20:55:59.221Z,1.20
2018-12-03T20:58:30.176Z,1.33
2018-12-03T21:01:01.281Z,1.60
2018-12-03T21:03:34.154Z,1.30
2018-12-03T21:06:07.378Z,1.80
2018-12-03T21:08:46.802Z,1.50
2018-12-03T21:11:22.151Z,1.60
2018-12-03T21:13:57.165Z,1.77
2018-12-03T21:16:28.081Z,1.73
2018-12-03T21:19:07.279Z,1.50
2018-12-03T21:21:47.429Z,1.53
2018-12-03T21:24:14.807Z,1.50
2018-12-03T21:26:46.285Z,1.90
2018-12-03T21:29:13.945Z,1.93
2018-12-03T21:31:45.371Z,1.93
2018-12-03T21:34:24.529Z,1.70
2018-12-03T21:37:04.392Z,1.70
2018-12-03T21:39:40.089Z,1.50
2018-12-03T21:42:20.452Z,1.53
2018-12-03T21:44:57.941Z,1.93
2018-12-03T21:47:28.488Z,1.20
2018-12-03T21:50:04.494Z,2.03
2018-12-03T21:52:32.749Z,1.67
2018-12-03T21:55:05.508Z,1.70
2018-12-03T21:57:38.466Z,1.83
2018-12-03T22:00:17.625Z,2.27
2018-12-03T22:02:48.893Z,1.97
2018-12-03T22:05:26.139Z,2.47
2018-12-03T22:08:03.166Z,1.80
2018-12-03T22:10:30.525Z,1.90
2018-12-03T22:13:10.130Z,2.00
2018-12-03T22:15:37.596Z,1.60
2018-12-03T22:18:05.012Z,1.43
2018-12-03T22:20:42.081Z,1.83
2018-12-03T22:23:12.766Z,1.70
2018-12-03T22:25:40.516Z,2.00
2018-12-03T22:28:13.806Z,1.70
2018-12-03T22:30:52.865Z,1.97
2018-12-03T22:36:09.789Z,1.33
2018-12-03T22:38:38.844Z,1.73
2018-12-03T22:41:09.702Z,1.70
2018-12-03T22:43:49.329Z,1.40
2018-12-03T22:46:21.168Z,1.43
2018-12-03T22:48:51.941Z,1.30
2018-12-03T22:51:32.083Z,1.87
2018-12-03T22:54:13.297Z,1.47
2018-12-03T22:56:44.606Z,1.20
2018-12-03T22:59:18.585Z,1.70
2018-12-03T23:04:55.602Z,1.33
2018-12-03T23:07:33.286Z,1.50
2018-12-03T23:10:06.302Z,1.77
2018-12-03T23:12:41.235Z,2.17
2018-12-03T23:15:13.406Z,1.63
2018-12-03T23:17:53.427Z,2.00
2018-12-03T23:20:25.663Z,1.67
2018-12-03T23:23:03.389Z,1.73
2018-12-03T23:25:35.035Z,2.10
2018-12-03T23:28:14.336Z,1.50
2018-12-03T23:30:51.265Z,1.77
2018-12-03T23:33:31.662Z,2.00
2018-12-03T23:36:11.749Z,1.63
2018-12-03T23:38:42.582Z,1.60
2018-12-03T23:41:13.852Z,2.00
2018-12-03T23:43:48.044Z,1.80
2018-12-03T23:46:21.037Z,1.83
2018-12-03T23:49:05.100Z,1.40
2018-12-03T23:51:43.300Z,2.10
2018-12-03T23:54:20.215Z,1.90
2018-12-03T23:56:59.505Z,2.13
2018-12-03T23:59:30.952Z,1.80
